createdAt,value
2022-09-07T00:00:47.291Z,20.25
2022-09-07T00:01:47.192Z,20.25
2022-09-07T00:02:47.213Z,20.23
2022-09-07T00:03:47.171Z,20.22
2022-09-07T00:04:47.199Z,20.22
2022-09-07T00:05:47.152Z,20.22
2022-09-07T00:06:47.145Z,20.19
2022-09-07T00:07:47.118Z,20.18
2022-09-07T00:08:47.175Z,20.15
2022-09-07T00:09:47.301Z,20.17
2022-09-07T00:10:47.106Z,20.17
2022-09-07T00:11:47.075Z,20.14
2022-09-07T00:12:47.090Z,20.14
2022-09-07T00:13:47.064Z,20.11
2022-09-07T00:14:47.059Z,20.08
2022-09-07T00:15:47.069Z,20.07
2022-09-07T00:16:47.121Z,20.04
2022-09-07T00:17:47.082Z,20.02
2022-09-07T00:18:47.016Z,19.99
2022-09-07T00:19:47.000Z,19.96
2022-09-07T00:20:47.010Z,19.93
2022-09-07T00:21:46.975Z,19.87
2022-09-07T00:22:47.142Z,19.87
2022-09-07T00:23:46.950Z,19.84
2022-09-07T00:24:47.012Z,19.82
2022-09-07T00:25:49.189Z,19.86
2022-09-07T00:26:46.940Z,19.84
2022-09-07T00:27:46.899Z,19.82
2022-09-07T00:28:46.911Z,19.84
2022-09-07T00:29:46.891Z,19.87
2022-09-07T00:30:46.927Z,19.89
2022-09-07T00:31:46.912Z,19.90
2022-09-07T00:32:46.968Z,19.90
2022-09-07T00:33:46.860Z,19.90
2022-09-07T00:34:46.840Z,19.78
2022-09-07T00:35:46.853Z,19.64
2022-09-07T00:36:46.836Z,19.50
2022-09-07T00:37:46.847Z,19.27
2022-09-07T00:38:46.831Z,19.16
2022-09-07T00:39:46.846Z,19.05
2022-09-07T00:40:46.805Z,18.96
2022-09-07T00:41:46.816Z,18.89
2022-09-07T00:42:46.799Z,18.83
2022-09-07T00:43:46.761Z,18.79
2022-09-07T00:44:46.778Z,18.76
2022-09-07T00:45:46.732Z,18.71
2022-09-07T00:46:46.867Z,18.71
2022-09-07T00:47:46.698Z,18.68
2022-09-07T00:48:46.685Z,18.64
2022-09-07T00:49:46.689Z,18.61
2022-09-07T00:50:46.670Z,18.60
2022-09-07T00:51:46.659Z,18.58
2022-09-07T00:52:46.650Z,18.58
2022-09-07T00:53:46.628Z,18.56
2022-09-07T00:54:46.621Z,18.52
2022-09-07T00:55:46.622Z,18.51
2022-09-07T00:56:46.632Z,18.48
2022-09-07T00:57:46.856Z,18.48
2022-09-07T00:58:46.604Z,18.48
2022-09-07T00:59:46.597Z,18.43
2022-09-07T01:00:46.614Z,18.43
2022-09-07T01:01:46.670Z,18.42
2022-09-07T01:02:46.789Z,18.41
2022-09-07T01:03:46.517Z,18.39
2022-09-07T01:04:46.531Z,18.36
2022-09-07T01:05:46.503Z,18.33
2022-09-07T01:06:46.500Z,18.33
2022-09-07T01:07:49.389Z,18.30
2022-09-07T01:08:46.477Z,18.27
2022-09-07T01:09:46.462Z,18.23
2022-09-07T01:10:46.495Z,18.20
2022-09-07T01:11:46.486Z,18.15
2022-09-07T01:12:46.451Z,18.12
2022-09-07T01:13:46.437Z,18.08
2022-09-07T01:14:47.603Z,18.05
2022-09-07T01:15:46.542Z,18.02
2022-09-07T01:16:46.462Z,18.02
2022-09-07T01:17:46.400Z,17.99
2022-09-07T01:18:46.428Z,17.93
2022-09-07T01:19:46.350Z,17.94
2022-09-07T01:20:46.369Z,17.91
2022-09-07T01:21:46.360Z,17.90
2022-09-07T01:22:46.369Z,17.86
2022-09-07T01:23:46.304Z,17.87
2022-09-07T01:24:46.403Z,17.83
2022-09-07T01:25:46.301Z,17.83
2022-09-07T01:26:46.290Z,17.79
2022-09-07T01:27:46.282Z,17.81
2022-09-07T01:28:46.293Z,17.81
2022-09-07T01:29:46.254Z,17.78
2022-09-07T01:30:46.296Z,17.78
2022-09-07T01:31:46.238Z,17.76
2022-09-07T01:32:46.361Z,17.72
2022-09-07T01:33:46.215Z,17.69
2022-09-07T01:34:46.218Z,17.68
2022-09-07T01:35:46.238Z,17.66
2022-09-07T01:36:46.218Z,17.63
2022-09-07T01:37:46.173Z,17.62
2022-09-07T01:38:46.222Z,17.59
2022-09-07T01:39:46.223Z,17.56
2022-09-07T01:40:46.145Z,17.56
2022-09-07T01:41:46.128Z,17.54
2022-09-07T01:42:46.165Z,17.54
2022-09-07T01:43:46.125Z,17.54
2022-09-07T01:44:46.107Z,17.53
2022-09-07T01:45:46.097Z,17.53
2022-09-07T01:46:46.128Z,17.50
2022-09-07T01:47:46.147Z,17.50
2022-09-07T01:48:46.099Z,17.50
2022-09-07T01:49:46.071Z,17.49
2022-09-07T01:50:46.082Z,17.49
2022-09-07T01:51:46.029Z,17.47
2022-09-07T01:52:46.063Z,17.49
2022-09-07T01:53:45.994Z,17.49
2022-09-07T01:54:46.087Z,17.49
2022-09-07T01:55:46.004Z,17.50
2022-09-07T01:56:46.034Z,17.47
2022-09-07T01:57:45.982Z,17.46
2022-09-07T01:58:46.023Z,17.46
2022-09-07T01:59:45.970Z,17.41
2022-09-07T02:00:45.977Z,17.39
2022-09-07T02:01:45.968Z,17.45
2022-09-07T02:02:46.149Z,17.45
2022-09-07T02:03:45.915Z,17.43
2022-09-07T02:04:45.914Z,17.43
2022-09-07T02:05:45.876Z,17.41
2022-09-07T02:06:45.866Z,17.38
2022-09-07T02:07:45.883Z,17.35
2022-09-07T02:08:47.364Z,17.32
2022-09-07T02:09:45.830Z,17.32
2022-09-07T02:10:45.856Z,17.34
2022-09-07T02:11:45.844Z,17.32
2022-09-07T02:12:45.919Z,17.32
2022-09-07T02:13:45.801Z,17.32
2022-09-07T02:14:49.376Z,17.32
2022-09-07T02:15:45.852Z,17.32
2022-09-07T02:16:45.771Z,17.32
2022-09-07T02:17:45.746Z,17.31
2022-09-07T02:18:45.796Z,17.28
2022-09-07T02:19:45.732Z,17.28
2022-09-07T02:20:45.747Z,17.27
2022-09-07T02:21:45.756Z,17.25
2022-09-07T02:22:45.699Z,17.27
2022-09-07T02:23:46.014Z,17.25
2022-09-07T02:24:45.684Z,17.25
2022-09-07T02:25:45.663Z,17.25
2022-09-07T02:26:45.660Z,17.25
2022-09-07T02:27:45.680Z,17.25
2022-09-07T02:28:45.671Z,17.22
2022-09-07T02:29:45.664Z,17.20
2022-09-07T02:30:45.696Z,17.20
2022-09-07T02:31:45.623Z,17.22
2022-09-07T02:32:45.698Z,17.22
2022-09-07T02:33:45.683Z,17.22
2022-09-07T02:34:45.648Z,17.24
2022-09-07T02:35:45.673Z,17.24
2022-09-07T02:36:45.587Z,17.24
2022-09-07T02:37:45.566Z,17.22
2022-09-07T02:38:45.554Z,17.22
2022-09-07T02:39:45.664Z,17.22
2022-09-07T02:40:45.500Z,17.25
2022-09-07T02:41:45.529Z,17.22
2022-09-07T02:42:45.564Z,17.20
2022-09-07T02:43:45.544Z,17.24
2022-09-07T02:44:45.512Z,17.22
2022-09-07T02:45:45.520Z,17.22
2022-09-07T02:46:48.006Z,17.20
2022-09-07T02:47:45.461Z,17.22
2022-09-07T02:48:45.516Z,17.19
2022-09-07T02:49:45.469Z,17.16
2022-09-07T02:50:45.396Z,17.14
2022-09-07T02:51:45.419Z,17.16
2022-09-07T02:52:45.421Z,17.16
2022-09-07T02:53:45.560Z,17.13
2022-09-07T02:54:45.382Z,17.10
2022-09-07T02:55:45.402Z,17.07
2022-09-07T02:56:45.354Z,17.04
2022-09-07T02:57:45.369Z,17.02
2022-09-07T02:58:45.372Z,16.99
2022-09-07T02:59:45.314Z,16.97
2022-09-07T03:00:45.310Z,16.94
2022-09-07T03:01:45.328Z,16.92
2022-09-07T03:02:45.331Z,16.88
2022-09-07T03:03:45.270Z,16.84
2022-09-07T03:04:45.296Z,16.83
2022-09-07T03:05:45.266Z,16.76
2022-09-07T03:06:45.238Z,16.76
2022-09-07T03:07:45.260Z,16.73
2022-09-07T03:08:45.255Z,16.73
2022-09-07T03:09:45.253Z,16.72
2022-09-07T03:10:45.190Z,16.69
2022-09-07T03:11:45.250Z,16.67
2022-09-07T03:12:45.193Z,16.64
2022-09-07T03:13:45.162Z,16.62
2022-09-07T03:14:45.155Z,16.59
2022-09-07T03:15:45.170Z,16.57
2022-09-07T03:16:45.128Z,16.55
2022-09-07T03:17:45.120Z,16.52
2022-09-07T03:18:45.100Z,16.47
2022-09-07T03:19:45.143Z,16.44
2022-09-07T03:20:45.073Z,16.42
2022-09-07T03:21:45.113Z,16.39
2022-09-07T03:22:45.065Z,16.37
2022-09-07T03:23:47.790Z,16.34
2022-09-07T03:24:45.098Z,16.33
2022-09-07T03:25:45.093Z,16.26
2022-09-07T03:26:45.086Z,16.26
2022-09-07T03:27:45.016Z,16.26
2022-09-07T03:28:45.053Z,16.24
2022-09-07T03:29:44.994Z,16.24
2022-09-07T03:30:45.020Z,16.24
2022-09-07T03:31:44.975Z,16.18
2022-09-07T03:32:44.973Z,16.16
2022-09-07T03:33:44.935Z,16.14
2022-09-07T03:34:44.935Z,16.09
2022-09-07T03:35:44.947Z,16.06
2022-09-07T03:36:44.891Z,16.03
2022-09-07T03:37:44.904Z,16.03
2022-09-07T03:38:44.890Z,16.02
2022-09-07T03:39:44.903Z,16.00
2022-09-07T03:40:44.851Z,15.96
2022-09-07T03:41:44.928Z,15.93
2022-09-07T03:42:44.938Z,15.91
2022-09-07T03:43:44.913Z,15.88
2022-09-07T03:44:44.824Z,15.87
2022-09-07T03:45:44.870Z,15.85
2022-09-07T03:46:44.832Z,15.81
2022-09-07T03:47:44.867Z,15.80
2022-09-07T03:48:44.856Z,15.77
2022-09-07T03:49:44.764Z,15.76
2022-09-07T03:50:44.771Z,15.73
2022-09-07T03:51:44.739Z,15.73
2022-09-07T03:52:44.720Z,15.73
2022-09-07T03:53:44.794Z,15.73
2022-09-07T03:54:44.713Z,15.73
2022-09-07T03:55:44.746Z,15.72
2022-09-07T03:56:44.747Z,15.70
2022-09-07T03:57:44.709Z,15.68
2022-09-07T03:58:44.886Z,15.69
2022-09-07T03:59:44.658Z,15.72
2022-09-07T04:00:44.652Z,15.72
2022-09-07T04:01:44.687Z,15.70
2022-09-07T04:02:44.901Z,15.72
2022-09-07T04:03:44.621Z,15.69
2022-09-07T04:04:44.631Z,15.70
2022-09-07T04:05:44.600Z,15.69
2022-09-07T04:06:44.582Z,15.68
2022-09-07T04:07:44.580Z,15.66
2022-09-07T04:08:44.597Z,15.65
2022-09-07T04:09:44.550Z,15.63
2022-09-07T04:10:44.550Z,15.62
2022-09-07T04:11:44.653Z,15.59
2022-09-07T04:12:44.755Z,15.58
2022-09-07T04:13:44.514Z,15.58
2022-09-07T04:14:44.479Z,15.58
2022-09-07T04:15:44.522Z,15.58
2022-09-07T04:16:44.513Z,15.54
2022-09-07T04:17:44.476Z,15.54
2022-09-07T04:18:44.488Z,15.51
2022-09-07T04:19:44.465Z,15.51
2022-09-07T04:20:44.475Z,15.54
2022-09-07T04:21:44.426Z,15.58
2022-09-07T04:22:44.447Z,15.58
2022-09-07T04:23:44.448Z,15.54
2022-09-07T04:24:44.470Z,15.52
2022-09-07T04:25:44.324Z,15.52
2022-09-07T04:26:44.325Z,15.51
2022-09-07T04:27:44.356Z,15.47
2022-09-07T04:28:44.289Z,15.45
2022-09-07T04:29:44.291Z,15.45
2022-09-07T04:30:44.315Z,15.44
2022-09-07T04:31:44.267Z,15.43
2022-09-07T04:32:44.245Z,15.41
2022-09-07T04:33:44.240Z,15.41
2022-09-07T04:34:44.238Z,15.44
2022-09-07T04:35:44.249Z,15.44
2022-09-07T04:36:44.232Z,15.44
2022-09-07T04:37:44.197Z,15.44
2022-09-07T04:38:44.199Z,15.44
2022-09-07T04:39:44.250Z,15.44
2022-09-07T04:40:44.172Z,15.43
2022-09-07T04:41:44.167Z,15.38
2022-09-07T04:42:44.147Z,15.35
2022-09-07T04:43:44.180Z,15.33
2022-09-07T04:44:44.142Z,15.35
2022-09-07T04:45:44.163Z,15.35
2022-09-07T04:46:44.121Z,15.33
2022-09-07T04:47:44.094Z,15.36
2022-09-07T04:48:44.064Z,15.36
2022-09-07T04:49:44.067Z,15.33
2022-09-07T04:50:44.054Z,15.32
2022-09-07T04:51:44.057Z,15.29
2022-09-07T04:52:44.042Z,15.26
2022-09-07T04:53:44.016Z,15.25
2022-09-07T04:54:44.006Z,15.25
2022-09-07T04:55:44.010Z,15.25
2022-09-07T04:56:43.994Z,15.22
2022-09-07T04:57:43.978Z,15.22
2022-09-07T04:58:43.956Z,15.20
2022-09-07T04:59:44.012Z,15.20
2022-09-07T05:00:43.939Z,15.19
2022-09-07T05:01:44.042Z,15.17
2022-09-07T05:02:44.006Z,15.20
2022-09-07T05:03:43.943Z,15.22
2022-09-07T05:04:43.901Z,15.23
2022-09-07T05:05:44.034Z,15.22
2022-09-07T05:06:43.893Z,15.22
2022-09-07T05:07:43.889Z,15.22
2022-09-07T05:08:43.850Z,15.19
2022-09-07T05:09:43.857Z,15.15
2022-09-07T05:10:43.838Z,15.20
2022-09-07T05:11:43.827Z,15.19
2022-09-07T05:12:43.818Z,15.20
2022-09-07T05:13:43.824Z,15.20
2022-09-07T05:14:43.792Z,15.22
2022-09-07T05:15:43.781Z,15.23
2022-09-07T05:16:43.906Z,15.26
2022-09-07T05:17:43.779Z,15.26
2022-09-07T05:18:43.740Z,15.26
2022-09-07T05:19:43.744Z,15.30
2022-09-07T05:20:43.708Z,15.30
2022-09-07T05:21:43.714Z,15.32
2022-09-07T05:22:43.729Z,15.35
2022-09-07T05:23:43.946Z,15.35
2022-09-07T05:24:43.676Z,15.35
2022-09-07T05:25:43.662Z,15.35
2022-09-07T05:26:43.660Z,15.40
2022-09-07T05:27:43.684Z,15.41
2022-09-07T05:28:43.629Z,15.41
2022-09-07T05:31:43.625Z,15.47
2022-09-07T05:32:43.604Z,15.50
2022-09-07T05:34:43.607Z,15.52
2022-09-07T05:35:43.591Z,15.56
2022-09-07T05:36:43.542Z,15.59
2022-09-07T05:37:43.586Z,15.62
2022-09-07T05:38:43.561Z,15.62
2022-09-07T05:39:43.604Z,15.65
2022-09-07T05:40:43.510Z,15.68
2022-09-07T05:41:43.513Z,15.70
2022-09-07T05:42:43.704Z,15.69
2022-09-07T05:44:43.899Z,15.70
2022-09-07T05:45:43.575Z,15.72
2022-09-07T05:46:43.438Z,15.73
2022-09-07T05:47:43.467Z,15.76
2022-09-07T05:48:43.453Z,15.77
2022-09-07T05:49:43.425Z,15.77
2022-09-07T05:50:43.403Z,15.80
2022-09-07T05:51:43.409Z,15.80
2022-09-07T05:52:43.435Z,15.83
2022-09-07T05:53:43.414Z,15.84
2022-09-07T05:54:43.376Z,15.88
2022-09-07T05:55:43.379Z,15.87
2022-09-07T05:56:43.341Z,15.88
2022-09-07T05:57:43.328Z,15.91
2022-09-07T05:58:43.362Z,15.93
2022-09-07T05:59:43.341Z,15.96
2022-09-07T06:00:43.319Z,15.99
2022-09-07T06:01:43.363Z,15.99
2022-09-07T06:02:43.307Z,16.03
2022-09-07T06:03:43.287Z,16.06
2022-09-07T06:04:43.351Z,16.09
2022-09-07T06:05:43.239Z,16.10
2022-09-07T06:06:47.882Z,16.14
2022-09-07T06:07:43.231Z,16.14
2022-09-07T06:08:43.217Z,16.14
2022-09-07T06:11:43.186Z,16.22
2022-09-07T06:12:45.537Z,16.24
2022-09-07T06:13:43.176Z,16.26
2022-09-07T06:14:43.267Z,16.29
2022-09-07T06:15:43.139Z,16.32
2022-09-07T06:16:43.187Z,16.33
2022-09-07T06:17:43.127Z,16.36
2022-09-07T06:18:43.191Z,16.39
2022-09-07T06:19:43.119Z,16.42
2022-09-07T06:20:43.057Z,16.42
2022-09-07T06:21:43.095Z,16.46
2022-09-07T06:22:43.058Z,16.51
2022-09-07T06:23:43.046Z,16.52
2022-09-07T06:24:43.204Z,16.57
2022-09-07T06:25:43.055Z,16.59
2022-09-07T06:26:43.008Z,16.64
2022-09-07T06:27:43.040Z,16.65
2022-09-07T06:28:42.999Z,16.69
2022-09-07T06:29:43.009Z,16.72
2022-09-07T06:30:42.962Z,16.76
2022-09-07T06:32:43.150Z,16.83
2022-09-07T06:33:42.931Z,16.90
2022-09-07T06:34:42.944Z,16.90
2022-09-07T06:35:42.928Z,16.95
2022-09-07T06:36:42.891Z,16.99
2022-09-07T06:37:42.895Z,17.01
2022-09-07T06:38:42.926Z,17.07
2022-09-07T06:39:43.014Z,17.12
2022-09-07T06:40:42.856Z,17.14
2022-09-07T06:42:42.950Z,17.22
2022-09-07T06:43:45.579Z,17.27
2022-09-07T06:44:42.845Z,17.32
2022-09-07T06:45:42.881Z,17.39
2022-09-07T06:47:42.794Z,17.47
2022-09-07T06:48:44.488Z,17.52
2022-09-07T06:49:42.770Z,17.57
2022-09-07T06:50:42.752Z,17.65
2022-09-07T06:51:42.755Z,17.65
2022-09-07T06:53:44.481Z,17.57
2022-09-07T06:55:42.695Z,17.66
2022-09-07T06:56:42.757Z,17.72
2022-09-07T06:57:42.689Z,17.81
2022-09-07T06:58:42.684Z,17.83
2022-09-07T06:59:42.663Z,17.88
2022-09-07T07:00:42.723Z,17.93
2022-09-07T07:01:42.636Z,17.94
2022-09-07T07:02:42.654Z,17.94
2022-09-07T07:03:42.642Z,17.97
2022-09-07T07:04:42.612Z,18.05
2022-09-07T07:05:42.627Z,18.09
2022-09-07T07:06:42.587Z,18.12
2022-09-07T07:07:42.585Z,18.18
2022-09-07T07:08:42.610Z,18.24
2022-09-07T07:09:42.708Z,18.24
2022-09-07T07:10:42.544Z,18.23
2022-09-07T07:11:42.519Z,18.23
2022-09-07T07:13:48.090Z,18.34
2022-09-07T07:14:49.002Z,18.41
2022-09-07T07:15:48.993Z,18.45
2022-09-07T07:16:49.004Z,18.38
2022-09-07T07:17:56.148Z,18.39
2022-09-07T07:18:49.084Z,18.34
2022-09-07T07:19:48.951Z,18.42
2022-09-07T07:20:48.961Z,18.34
2022-09-07T07:22:10.658Z,18.26
2022-09-07T07:22:48.950Z,18.30
2022-09-07T07:23:48.917Z,18.33
2022-09-07T07:24:48.960Z,18.24
2022-09-07T07:25:48.899Z,18.23
2022-09-07T07:26:48.905Z,18.26
2022-09-07T07:27:48.879Z,18.39
2022-09-07T07:29:04.571Z,18.52
2022-09-07T07:29:48.921Z,18.75
2022-09-07T07:30:48.927Z,18.85
2022-09-07T07:31:48.876Z,18.83
2022-09-07T07:32:48.808Z,19.00
2022-09-07T07:33:48.875Z,19.16
2022-09-07T07:34:48.871Z,19.24
2022-09-07T07:35:48.777Z,19.13
2022-09-07T07:36:48.826Z,19.22
2022-09-07T07:37:48.743Z,19.17
2022-09-07T07:41:56.558Z,19.01
2022-09-07T07:42:48.717Z,18.97
2022-09-07T07:43:48.691Z,18.89
2022-09-07T07:44:48.878Z,18.74
2022-09-07T07:45:56.032Z,18.68
2022-09-07T07:46:48.721Z,18.63
2022-09-07T07:47:48.638Z,18.63
2022-09-07T07:48:48.636Z,18.66
2022-09-07T07:49:49.446Z,18.64
2022-09-07T07:50:48.624Z,18.63
2022-09-07T07:52:50.276Z,18.60
2022-09-07T07:53:48.599Z,18.54
2022-09-07T07:54:48.573Z,18.56
2022-09-07T07:55:48.585Z,18.58
2022-09-07T07:56:48.548Z,18.61
2022-09-07T07:57:48.546Z,18.64
2022-09-07T07:58:48.534Z,18.75
2022-09-07T07:59:48.515Z,18.79
2022-09-07T08:00:54.900Z,18.81
2022-09-07T08:01:48.729Z,18.93
2022-09-07T08:02:48.539Z,19.00
2022-09-07T08:03:48.486Z,18.98
2022-09-07T08:04:48.628Z,18.93
2022-09-07T08:05:48.473Z,18.91
2022-09-07T08:06:48.454Z,18.94
2022-09-07T08:07:48.437Z,18.91
2022-09-07T08:08:48.489Z,18.83
2022-09-07T08:09:48.406Z,18.82
2022-09-07T08:10:48.417Z,18.79
2022-09-07T08:11:48.419Z,18.83
2022-09-07T08:12:48.411Z,18.85
2022-09-07T08:13:48.360Z,18.81
2022-09-07T08:14:48.416Z,18.85
2022-09-07T08:15:48.404Z,18.81
2022-09-07T08:16:48.369Z,18.82
2022-09-07T08:17:48.341Z,18.86
2022-09-07T08:18:48.319Z,18.88
2022-09-07T08:19:48.303Z,18.89
2022-09-07T08:20:48.968Z,18.88
2022-09-07T08:21:48.296Z,18.83
2022-09-07T08:22:48.280Z,18.85
2022-09-07T08:23:48.253Z,18.88
2022-09-07T08:24:48.262Z,18.86
2022-09-07T08:25:48.260Z,18.86
2022-09-07T08:26:48.261Z,18.83
2022-09-07T08:27:48.259Z,18.82
2022-09-07T08:28:48.206Z,18.78
2022-09-07T08:29:48.192Z,18.67
2022-09-07T08:30:48.189Z,18.60
2022-09-07T08:31:48.259Z,18.58
2022-09-07T08:32:48.208Z,18.57
2022-09-07T08:33:48.146Z,18.57
2022-09-07T08:34:48.151Z,18.56
2022-09-07T08:35:48.140Z,18.52
2022-09-07T08:36:48.150Z,18.51
2022-09-07T08:37:48.105Z,18.49
2022-09-07T08:38:48.129Z,18.52
2022-09-07T08:39:48.137Z,18.54
2022-09-07T08:40:48.078Z,18.56
2022-09-07T08:41:48.087Z,18.60
2022-09-07T08:42:48.065Z,18.61
2022-09-07T08:43:49.251Z,18.61
2022-09-07T08:44:48.054Z,18.63
2022-09-07T08:45:48.020Z,18.71
2022-09-07T08:46:48.118Z,18.78
2022-09-07T08:47:48.067Z,18.91
2022-09-07T08:48:47.996Z,19.05
2022-09-07T08:49:47.989Z,19.19
2022-09-07T08:50:47.979Z,19.32
2022-09-07T08:51:47.981Z,19.38
2022-09-07T08:52:47.969Z,19.45
2022-09-07T08:53:47.939Z,19.49
2022-09-07T08:54:47.942Z,19.41
2022-09-07T08:55:47.925Z,19.50
2022-09-07T08:57:48.769Z,19.70
2022-09-07T08:58:49.608Z,19.63
2022-09-07T08:59:47.950Z,19.67
2022-09-07T09:00:48.261Z,19.72
2022-09-07T09:02:27.153Z,19.75
2022-09-07T09:03:28.559Z,19.74
2022-09-07T09:05:47.923Z,19.64
2022-09-07T09:06:48.003Z,19.67
2022-09-07T09:07:47.932Z,19.60
2022-09-07T09:08:47.792Z,19.60
2022-09-07T09:09:47.765Z,19.56
2022-09-07T09:10:47.856Z,19.60
2022-09-07T09:11:47.744Z,19.64
2022-09-07T09:12:47.758Z,19.60
2022-09-07T09:13:47.743Z,19.67
2022-09-07T09:14:47.739Z,19.63
2022-09-07T09:15:47.781Z,19.68
2022-09-07T09:16:47.707Z,19.75
2022-09-07T09:17:47.737Z,19.79
2022-09-07T09:18:47.715Z,19.75
2022-09-07T09:19:47.670Z,19.72
2022-09-07T09:20:47.659Z,19.62
2022-09-07T09:21:47.641Z,19.59
2022-09-07T09:22:47.659Z,19.54
2022-09-07T09:23:47.627Z,19.49
2022-09-07T09:24:47.627Z,19.42
2022-09-07T09:25:47.616Z,19.41
2022-09-07T09:26:47.678Z,19.34
2022-09-07T09:27:47.631Z,19.31
2022-09-07T09:28:47.623Z,19.26
2022-09-07T09:29:47.564Z,19.27
2022-09-07T09:30:47.625Z,19.30
2022-09-07T09:31:47.596Z,19.31
2022-09-07T09:32:47.663Z,19.30
2022-09-07T09:33:47.534Z,19.24
2022-09-07T09:34:47.545Z,19.20
2022-09-07T09:35:47.489Z,19.20
2022-09-07T09:36:47.514Z,19.17
2022-09-07T09:37:47.536Z,19.22
2022-09-07T09:38:47.482Z,19.22
2022-09-07T09:39:51.029Z,19.23
2022-09-07T09:40:47.450Z,19.22
2022-09-07T09:41:47.460Z,19.19
2022-09-07T09:42:47.457Z,19.15
2022-09-07T09:43:47.472Z,19.09
2022-09-07T09:44:47.459Z,19.09
2022-09-07T09:46:47.542Z,19.13
2022-09-07T09:47:47.458Z,19.09
2022-09-07T09:48:47.372Z,19.05
2022-09-07T09:49:47.350Z,19.05
2022-09-07T09:52:51.619Z,18.96
2022-09-07T09:53:47.394Z,18.93
2022-09-07T09:54:47.416Z,18.93
2022-09-07T09:55:47.292Z,18.94
2022-09-07T09:56:47.293Z,18.97
2022-09-07T09:59:04.635Z,19.00
2022-09-07T10:00:06.973Z,19.05
2022-09-07T10:04:47.211Z,19.17
2022-09-07T10:05:47.175Z,19.23
2022-09-07T10:06:47.296Z,19.31
2022-09-07T10:07:47.238Z,19.38
2022-09-07T10:08:47.194Z,19.49
2022-09-07T10:09:47.135Z,19.54
2022-09-07T10:10:47.145Z,19.60
2022-09-07T10:12:47.116Z,19.78
2022-09-07T10:13:47.185Z,19.84
2022-09-07T10:14:47.088Z,19.84
2022-09-07T10:15:47.114Z,19.89
2022-09-07T10:16:47.098Z,19.97
2022-09-07T10:17:47.043Z,20.04
2022-09-07T10:18:47.074Z,20.15
2022-09-07T10:19:47.020Z,20.30
2022-09-07T10:20:47.023Z,20.37
2022-09-07T10:21:47.230Z,20.46
2022-09-07T10:22:51.342Z,20.52
2022-09-07T10:23:46.997Z,20.64
2022-09-07T10:24:47.008Z,20.68
2022-09-07T10:25:46.964Z,20.70
2022-09-07T10:26:46.981Z,20.73
2022-09-07T10:27:46.936Z,20.77
2022-09-07T10:29:46.977Z,20.82
2022-09-07T10:30:46.931Z,20.86
2022-09-07T10:31:46.947Z,20.83
2022-09-07T10:32:47.229Z,20.73
2022-09-07T10:34:25.728Z,20.70
2022-09-07T10:34:46.923Z,20.74
2022-09-07T10:35:46.923Z,20.73
2022-09-07T10:36:46.920Z,20.70
2022-09-07T10:37:46.841Z,20.63
2022-09-07T10:38:46.841Z,20.61
2022-09-07T10:39:46.865Z,20.63
2022-09-07T10:40:46.821Z,20.56
2022-09-07T10:41:46.795Z,20.52
2022-09-07T10:43:46.851Z,20.49
2022-09-07T10:44:47.272Z,20.49
2022-09-07T10:45:46.777Z,20.53
2022-09-07T10:47:02.188Z,20.48
2022-09-07T10:47:46.757Z,20.44
2022-09-07T10:48:46.750Z,20.19
2022-09-07T10:50:46.730Z,20.23
2022-09-07T10:51:46.705Z,20.23
2022-09-07T10:52:46.705Z,20.25
2022-09-07T10:53:46.801Z,20.25
2022-09-07T10:54:46.737Z,20.23
2022-09-07T10:55:46.665Z,20.23
2022-09-07T10:56:46.672Z,20.25
2022-09-07T10:57:49.112Z,20.29
2022-09-07T10:59:03.053Z,20.33
2022-09-07T11:00:46.756Z,21.37
2022-09-07T11:01:46.752Z,21.88
2022-09-07T11:03:24.795Z,21.71
2022-09-07T11:03:46.772Z,21.51
2022-09-07T11:04:46.762Z,21.41
2022-09-07T11:05:46.561Z,21.48
2022-09-07T11:06:46.535Z,21.82
2022-09-07T11:07:46.540Z,21.97
2022-09-07T11:09:46.939Z,21.81
2022-09-07T11:10:46.489Z,21.75
2022-09-07T11:12:02.849Z,22.18
2022-09-07T11:12:46.507Z,22.12
2022-09-07T11:14:09.300Z,22.01
2022-09-07T11:14:46.593Z,22.01
2022-09-07T11:15:46.511Z,21.91
2022-09-07T11:16:53.707Z,21.96
2022-09-07T11:17:49.425Z,21.93
2022-09-07T11:18:46.448Z,21.82
2022-09-07T11:19:46.488Z,21.80
2022-09-07T11:20:46.393Z,21.75
2022-09-07T11:22:01.807Z,21.77
2022-09-07T11:22:46.373Z,22.04
2022-09-07T11:23:46.582Z,22.04
2022-09-07T11:24:47.197Z,22.07
2022-09-07T11:25:46.828Z,22.06
2022-09-07T11:26:46.325Z,21.77
2022-09-07T11:27:46.338Z,21.58
2022-09-07T11:28:46.417Z,21.43
2022-09-07T11:29:46.383Z,21.41
2022-09-07T11:30:46.416Z,21.23
2022-09-07T11:31:46.363Z,21.14
2022-09-07T11:32:46.443Z,21.14
2022-09-07T11:34:23.735Z,21.14
2022-09-07T11:34:47.151Z,20.93
2022-09-07T11:35:46.276Z,20.85
2022-09-07T11:36:46.252Z,20.79
2022-09-07T11:37:46.242Z,20.73
2022-09-07T11:38:46.293Z,20.65
2022-09-07T11:39:46.289Z,20.67
2022-09-07T11:40:46.388Z,20.79
2022-09-07T11:41:46.238Z,20.98
2022-09-07T11:42:46.210Z,21.04
2022-09-07T11:43:46.210Z,21.01
2022-09-07T11:44:46.327Z,21.08
2022-09-07T11:45:46.185Z,21.22
2022-09-07T11:46:46.213Z,21.22
2022-09-07T11:47:46.229Z,21.23
2022-09-07T11:48:46.168Z,21.30
2022-09-07T11:49:51.509Z,21.45
2022-09-07T11:50:47.397Z,21.60
2022-09-07T11:51:46.277Z,21.69
2022-09-07T11:52:46.070Z,21.66
2022-09-07T11:53:46.206Z,21.58
2022-09-07T11:54:46.104Z,21.50
2022-09-07T11:55:46.070Z,21.59
2022-09-07T11:56:46.338Z,21.78
2022-09-07T11:57:46.034Z,21.85
2022-09-07T11:58:46.078Z,21.97
2022-09-07T11:59:46.068Z,22.09
2022-09-07T12:00:46.133Z,22.33
2022-09-07T12:01:46.317Z,22.28
2022-09-07T12:02:58.971Z,22.40
2022-09-07T12:03:46.094Z,22.40
2022-09-07T12:04:46.136Z,22.36
2022-09-07T12:05:45.976Z,22.46
2022-09-07T12:06:45.922Z,22.59
2022-09-07T12:07:45.906Z,22.85
2022-09-07T12:08:45.900Z,22.92
2022-09-07T12:09:45.900Z,22.66
2022-09-07T12:10:45.880Z,22.49
2022-09-07T12:11:45.949Z,22.36
2022-09-07T12:12:45.869Z,22.37
2022-09-07T12:13:45.880Z,22.38
2022-09-07T12:14:45.830Z,22.30
2022-09-07T12:15:45.969Z,22.19
2022-09-07T12:16:45.857Z,22.19
2022-09-07T12:17:45.811Z,22.07
2022-09-07T12:18:45.799Z,22.07
2022-09-07T12:19:45.838Z,22.21
2022-09-07T12:20:45.831Z,22.58
2022-09-07T12:21:45.781Z,22.67
2022-09-07T12:22:45.974Z,22.88
2022-09-07T12:23:45.805Z,22.92
2022-09-07T12:24:45.767Z,23.23
2022-09-07T12:25:45.761Z,23.67
2022-09-07T12:26:45.733Z,23.96
2022-09-07T12:27:45.748Z,24.08
2022-09-07T12:28:45.742Z,24.44
2022-09-07T12:29:46.574Z,24.13
2022-09-07T12:30:45.764Z,24.04
2022-09-07T12:31:57.665Z,24.04
2022-09-07T12:32:54.286Z,23.94
2022-09-07T12:33:45.660Z,23.76
2022-09-07T12:34:45.758Z,23.78
2022-09-07T12:35:45.649Z,23.73
2022-09-07T12:36:45.784Z,24.18
2022-09-07T12:37:45.772Z,24.96
2022-09-07T12:38:45.760Z,25.38
2022-09-07T12:39:45.754Z,26.05
2022-09-07T12:40:45.667Z,26.16
2022-09-07T12:41:47.422Z,26.45
2022-09-07T12:42:45.615Z,26.97
2022-09-07T12:43:45.621Z,27.45
2022-09-07T12:44:45.564Z,27.57
2022-09-07T12:45:45.654Z,26.85
2022-09-07T12:46:46.793Z,26.97
2022-09-07T12:47:45.551Z,27.19
2022-09-07T12:48:45.535Z,27.31
2022-09-07T12:49:45.637Z,27.12
2022-09-07T12:50:45.653Z,26.38
2022-09-07T12:52:09.172Z,25.37
2022-09-07T12:52:45.497Z,25.03
2022-09-07T12:53:45.484Z,24.51
2022-09-07T12:54:45.492Z,24.07
2022-09-07T12:56:45.643Z,23.69
2022-09-07T12:57:46.497Z,23.64
2022-09-07T12:58:45.580Z,23.70
2022-09-07T12:59:45.436Z,23.78
2022-09-07T13:00:45.460Z,24.16
2022-09-07T13:01:45.477Z,25.14
2022-09-07T13:02:45.402Z,25.95
2022-09-07T13:03:52.644Z,26.67
2022-09-07T13:04:45.377Z,27.13
2022-09-07T13:05:45.324Z,27.53
2022-09-07T13:07:45.435Z,28.54
2022-09-07T13:08:45.687Z,28.84
2022-09-07T13:09:45.289Z,28.72
2022-09-07T13:10:45.269Z,28.54
2022-09-07T13:11:45.761Z,28.64
2022-09-07T13:13:00.633Z,28.12
2022-09-07T13:14:45.234Z,28.31
2022-09-07T13:15:45.322Z,28.27
2022-09-07T13:17:45.318Z,28.34
2022-09-07T13:18:45.224Z,28.30
2022-09-07T13:19:45.190Z,28.03
2022-09-07T13:20:45.170Z,27.58
2022-09-07T13:21:45.168Z,27.07
2022-09-07T13:22:45.620Z,26.60
2022-09-07T13:23:45.777Z,26.61
2022-09-07T13:24:47.156Z,26.48
2022-09-07T13:25:45.142Z,26.07
2022-09-07T13:26:49.304Z,25.66
2022-09-07T13:27:45.124Z,25.78
2022-09-07T13:28:45.098Z,25.88
2022-09-07T13:29:45.183Z,25.88